Latest Weather Observations for Swan Hill

IDV60801

Issued at 11:31 pm EST Saturday 28 May 2016 (issued every 30 minutes, with the page automatically refreshed every 10 minutes)

About weather observations | Map of weather stations | Latest weather observations for VIC | Other Formats
Station Details ID: 077094 Name: SWAN HILL AERODROME Lat: -35.38 Lon: 143.54 Height: 71.0 m
Data from the previous 72 hours. | See also: Recent months at Swan Hill
Date/Time
EST
Temp
°C
App
Temp
°C
Dew
Point
Rel
Hum
%
Delta-T
°C
Wind Press
QNH
hPa
Press
MSL
hPa
Rain
since 9 am
mm
Dir
 
Spd
km/h
Gust
km/h
Spd
kts
Gust
kts
28/11:30pm 7.3 4.5 5.0 85 1.0 SW 9 11 5 6 1018.7 1018.7 0.0
28/11:00pm 7.6 4.9 5.4 86 1.0 SW 9 11 5 6 1018.6 1018.6 0.0
28/10:30pm 8.2 5.2 5.8 85 1.1 SSW 11 13 6 7 1018.3 1018.3 0.0
28/10:00pm 8.4 5.4 5.9 84 1.1 SW 11 15 6 8 1018.2 1018.2 0.0
28/09:30pm 8.8 6.3 6.4 85 1.1 SW 9 13 5 7 1017.8 1017.9 0.0
28/09:00pm 8.9 6.0 6.5 85 1.1 SW 11 13 6 7 1017.5 1017.6 0.0
28/08:30pm 9.2 6.6 6.3 82 1.3 SW 9 13 5 7 1017.3 1017.4 0.0
28/08:00pm 9.6 7.0 6.3 80 1.5 SW 9 13 5 7 1016.8 1016.9 0.0
28/07:30pm 9.6 7.0 6.1 79 1.6 SW 9 13 5 7 1016.6 1016.7 0.0
28/07:00pm 10.1 7.2 6.3 77 1.8 SW 11 13 6 7 1016.2 1016.3 0.0
28/06:30pm 10.6 7.3 6.4 75 2.0 SW 13 17 7 9 1016.0 1016.1 0.0
28/06:00pm 11.2 8.2 6.1 71 2.4 SW 11 17 6 9 1015.7 1015.8 0.0
28/05:30pm 11.9 8.6 6.4 69 2.6 SW 13 17 7 9 1015.5 1015.6 0.0
28/05:00pm 13.1 9.9 6.9 66 3.0 SW 13 17 7 9 1015.2 1015.3 0.0
28/04:30pm 13.3 8.6 6.2 62 3.4 SW 20 28 11 15 1014.8 1014.8 0.0
28/04:00pm 14.0 10.6 5.9 58 3.9 SSW 13 17 7 9 1014.4 1014.4 0.0
28/03:30pm 14.4 10.0 6.5 59 3.8 SSW 19 24 10 13 1014.1 1014.1 0.0
28/03:00pm 14.0 10.2 5.9 58 3.9 S 15 20 8 11 1013.7 1013.7 0.0
28/02:30pm 14.5 10.4 6.3 58 4.0 S 17 32 9 17 1013.4 1013.4 0.0
28/02:00pm 14.3 10.7 6.6 60 3.7 SSW 15 24 8 13 1013.0 1013.0 0.0
28/01:30pm 14.5 11.4 7.1 61 3.6 SSE 13 20 7 11 1012.9 1012.9 0.0
28/01:00pm 14.1 9.7 6.5 60 3.7 S 19 32 10 17 1012.9 1012.9 0.0
28/12:30pm 14.1 10.1 6.7 61 3.6 S 17 30 9 16 1012.8 1012.8 0.0
28/12:00pm 13.1 8.6 6.2 63 3.3 S 19 26 10 14 1012.7 1012.7 0.0
28/11:30am 13.4 9.6 7.4 67 2.9 S 17 24 9 13 1012.7 1012.7 0.0
28/11:00am 13.1 9.7 7.5 69 2.7 S 15 26 8 14 1012.7 1012.7 0.0
28/10:30am 12.5 9.2 8.0 74 2.2 S 15 24 8 13 1012.7 1012.7 0.0
28/10:00am 11.6 8.2 7.7 77 1.9 S 15 22 8 12 1012.2 1012.2 0.0
28/09:30am 10.9 7.9 7.6 80 1.6 S 13 20 7 11 1011.8 1011.8 0.0
28/09:00am 10.2 7.2 7.8 85 1.2 S 13 17 7 9 1011.1 1011.1 9.2
28/08:37am 9.6 6.6 7.5 87 1.0 S 13 19 7 10 1010.9 1010.9 9.2
28/08:30am 9.6 6.6 7.7 88 0.9 S 13 19 7 10 1010.7 1010.7 9.2
28/08:00am 9.7 6.4 8.1 90 0.8 S 15 26 8 14 1010.3 1010.3 9.2
28/07:30am 9.4 6.1 8.0 91 0.7 S 15 22 8 12 1009.8 1009.8 9.2
28/07:10am 9.4 6.5 8.0 91 0.7 S 13 22 7 12 1009.4 1009.4 9.2
28/07:00am 9.4 6.1 8.2 92 0.6 S 15 22 8 12 1009.1 1009.1 9.2
28/06:51am 9.5 6.3 8.3 92 0.6 S 15 22 8 12 1008.9 1008.9 9.2
28/06:40am 9.5 5.9 8.4 93 0.5 S 17 28 9 15 1008.8 1008.8 9.2
28/06:30am 9.6 6.0 8.5 93 0.5 SSW 17 30 9 16 1008.6 1008.6 9.2
28/06:28am 9.6 6.0 8.5 93 0.5 SSW 17 22 9 12 1008.6 1008.6 9.2
28/06:00am 9.4 5.8 8.3 93 0.5 SW 17 24 9 13 1008.0 1008.0 9.2
28/05:30am 9.2 5.5 8.0 92 0.6 SW 17 22 9 12 1007.7 1007.7 9.2
28/05:00am 9.1 5.4 7.9 92 0.6 SW 17 22 9 12 1007.4 1007.4 9.2
28/04:30am 9.0 5.6 7.6 91 0.7 WSW 15 20 8 11 1007.1 1007.1 9.2
28/04:00am 8.9 5.5 7.5 91 0.7 WSW 15 22 8 12 1006.7 1006.7 9.2
28/03:56am 8.9 5.5 7.5 91 0.7 WSW 15 20 8 11 1006.7 1006.7 9.2
28/03:30am 9.0 5.6 7.6 91 0.7 WSW 15 19 8 10 1006.6 1006.6 9.2
28/03:00am 9.1 5.7 7.7 91 0.7 WSW 15 19 8 10 1006.7 1006.7 9.2
28/02:30am 9.2 6.2 7.8 91 0.7 WSW 13 17 7 9 1006.6 1006.6 9.0
28/02:00am 9.3 6.7 7.7 90 0.8 W 11 13 6 7 1006.4 1006.4 8.8
28/01:30am 9.3 6.3 7.6 89 0.8 W 13 15 7 8 1006.3 1006.3 8.6
28/01:00am 9.4 6.0 7.7 89 0.8 W 15 19 8 10 1006.4 1006.4 8.6
28/12:30am 9.4 6.0 7.5 88 0.9 WNW 15 19 8 10 1006.6 1006.6 8.4
28/12:00am 9.6 5.4 7.5 87 1.0 NW 19 22 10 12 1006.7 1006.7 8.2
 
Date/Time
EST
Temp
°C
App
Temp
°C
Dew
Point
Rel
Hum
%
Delta-T
°C
Wind Press
QNH
hPa
Press
MSL
hPa
Rain
since 9 am
mm
Dir
 
Spd
km/h
Gust
km/h
Spd
kts
Gust
kts
27/11:30pm 9.7 4.9 7.5 86 1.1 WNW 22 28 12 15 1006.8 1006.8 8.2
27/11:00pm 10.0 5.6 7.6 85 1.2 WNW 20 24 11 13 1006.7 1006.7 8.2
27/10:30pm 10.3 7.1 8.4 88 0.9 WNW 15 17 8 9 1006.7 1006.7 8.2
27/10:00pm 10.4 6.5 8.5 88 0.9 WNW 19 22 10 12 1006.7 1006.7 8.2
27/09:30pm 10.5 8.0 8.4 87 1.0 WNW 11 13 6 7 1006.6 1006.6 8.2
27/09:00pm 10.6 7.8 8.5 87 1.0 W 13 15 7 8 1006.6 1006.6 8.2
27/08:30pm 10.7 7.2 8.6 87 1.0 NW 17 22 9 12 1006.8 1006.8 8.2
27/08:00pm 10.8 7.8 9.2 90 0.8 NNW 15 19 8 10 1006.6 1006.6 8.2
27/07:30pm 10.1 7.7 8.7 91 0.7 NNE 11 15 6 8 1006.3 1006.3 8.2
27/07:00pm 10.9 9.4 9.2 89 0.9 NNW 7 9 4 5 1006.3 1006.3 8.2
27/06:30pm 11.6 9.6 10.2 91 0.7 NNW 11 13 6 7 1006.2 1006.2 8.0
27/06:00pm 11.1 9.3 9.5 90 0.8 NW 9 11 5 6 1006.4 1006.4 7.4
27/05:44pm 11.1 8.9 9.4 89 0.9 NW 11 13 6 7 1006.3 1006.3 6.8
27/05:30pm 11.0 9.1 9.1 88 0.9 NNW 9 11 5 6 1006.3 1006.3 5.2
27/05:00pm 11.4 9.1 9.1 86 1.2 NNW 11 13 6 7 1006.0 1006.0 5.2
27/04:54pm 11.4 8.7 9.1 86 1.2 NNW 13 17 7 9 1006.1 1006.1 5.2
27/04:35pm 11.3 5.7 8.7 84 1.3 W 28 46 15 25 1006.3 1006.3 4.2
27/04:30pm 11.1 4.6 8.0 81 1.5 W 32 46 17 25 1006.5 1006.5 3.2
27/04:27pm 11.8 6.6 9.0 83 1.4 WNW 26 46 14 25 1006.6 1006.6 2.4
27/04:23pm 13.0 9.8 9.8 81 1.6 NW 17 30 9 16 1006.4 1006.4 1.0
27/04:00pm 13.5 11.2 10.3 81 1.7 N 13 20 7 11 1005.8 1005.8 1.0
27/03:30pm 15.1 11.2 8.8 66 3.2 N 19 30 10 16 1005.7 1005.7 0.0
27/03:00pm 15.6 11.5 8.8 64 3.5 NNW 20 26 11 14 1006.0 1006.0 0.0
27/02:30pm 15.3 11.9 9.2 67 3.1 N 17 20 9 11 1006.3 1006.3 0.0
27/02:00pm 14.7 11.1 8.4 66 3.2 NW 17 22 9 12 1006.9 1006.9 0.0
27/01:30pm 15.0 11.9 8.7 66 3.2 NW 15 20 8 11 1007.3 1007.3 0.0
27/01:00pm 15.4 13.2 9.5 68 3.1 WNW 11 17 6 9 1007.8 1007.8 0.0
27/12:30pm 14.1 10.7 9.1 72 2.6 NW 17 22 9 12 1008.2 1008.2 0.0
27/12:02pm 14.1 10.7 9.3 73 2.5 WNW 17 24 9 13 1008.7 1008.7 0.0
27/12:00pm 13.9 10.5 9.3 74 2.4 WNW 17 24 9 13 1008.7 1008.7 0.0
27/11:30am 13.3 10.4 9.5 78 1.9 WNW 15 20 8 11 1009.4 1009.4 0.0
27/11:14am 13.0 10.4 9.3 78 1.9 WNW 13 19 7 10 1009.7 1009.7 0.0
27/11:00am 12.8 10.1 9.1 78 1.9 NW 13 19 7 10 1009.8 1009.8 0.0
27/10:30am 12.1 10.3 9.3 83 1.4 WNW 9 13 5 7 1010.3 1010.3 0.0
27/10:10am 11.3 9.3 8.7 84 1.3 WNW 9 13 5 7 1010.5 1010.5 0.0
27/10:00am 10.9 8.9 8.7 86 1.1 WNW 9 13 5 7 1010.5 1010.5 0.0
27/09:55am 10.7 8.3 8.5 86 1.1 WNW 11 15 6 8 1010.6 1010.6 0.0
27/09:30am 9.8 7.2 7.9 88 0.9 WNW 11 17 6 9 1010.5 1010.5 0.0
27/09:00am 8.7 6.3 7.2 90 0.7 NW 9 13 5 7 1010.4 1010.4 0.4
27/08:30am 7.5 6.3 6.4 93 0.5 WNW 2 9 1 5 1010.3 1010.3 0.4
27/08:00am 6.1 3.9 5.1 93 0.4 WNW 6 7 3 4 1010.2 1010.2 0.4
27/07:30am 5.6 1.9 4.6 93 0.4 WNW 13 15 7 8 1010.1 1010.1 0.4
27/07:00am 5.6 1.9 4.6 93 0.4 W 13 15 7 8 1010.0 1010.0 0.4
27/06:30am 5.5 1.8 4.5 93 0.4 W 13 15 7 8 1009.8 1009.8 0.4
27/06:00am 5.3 1.6 4.3 93 0.4 W 13 15 7 8 1009.7 1009.7 0.4
27/05:30am 5.3 1.2 4.3 93 0.4 W 15 17 8 9 1009.6 1009.6 0.2
27/05:00am 5.5 1.4 4.5 93 0.4 W 15 17 8 9 1009.7 1009.7 0.2
27/04:30am 5.5 1.8 4.5 93 0.4 W 13 15 7 8 1009.7 1009.7 0.2
27/04:00am 5.4 2.0 4.2 92 0.5 W 11 13 6 7 1009.6 1009.6 0.2
27/03:30am 5.7 2.0 4.5 92 0.5 W 13 15 7 8 1009.6 1009.6 0.2
27/03:00am 6.2 2.2 4.8 91 0.6 W 15 17 8 9 1009.8 1009.8 0.2
27/02:30am 6.5 2.5 5.1 91 0.6 W 15 17 8 9 1009.8 1009.8 0.2
27/02:00am 6.5 2.9 5.1 91 0.6 W 13 15 7 8 1009.9 1009.9 0.2
27/01:30am 6.7 3.1 5.2 90 0.7 W 13 15 7 8 1009.8 1009.8 0.2
27/01:00am 6.8 3.6 5.1 89 0.8 W 11 13 6 7 1009.9 1009.9 0.2
27/12:30am 7.4 3.5 5.5 88 0.9 W 15 19 8 10 1009.9 1009.9 0.2
27/12:00am 7.6 3.8 5.7 88 0.9 W 15 17 8 9 1009.9 1009.9 0.2
 
Date/Time
EST
Temp
°C
App
Temp
°C
Dew
Point
Rel
Hum
%
Delta-T
°C
Wind Press
QNH
hPa
Press
MSL
hPa
Rain
since 9 am
mm
Dir
 
Spd
km/h
Gust
km/h
Spd
kts
Gust
kts
26/11:30pm 7.7 3.9 5.7 87 0.9 W 15 17 8 9 1009.8 1009.8 0.2
26/11:00pm 8.0 4.6 6.0 87 0.9 WSW 13 15 7 8 1009.9 1009.9 0.2
26/10:30pm 7.9 4.5 5.9 87 0.9 W 13 15 7 8 1009.7 1009.7 0.2
26/10:00pm 8.4 5.1 6.2 86 1.0 WSW 13 17 7 9 1009.8 1009.8 0.2
26/09:30pm 8.2 4.8 6.0 86 1.0 WSW 13 15 7 8 1009.7 1009.7 0.2
26/09:00pm 8.6 5.3 6.2 85 1.1 WSW 13 17 7 9 1009.5 1009.5 0.2
26/08:30pm 9.0 5.3 6.3 83 1.2 W 15 17 8 9 1009.2 1009.2 0.2
26/08:00pm 9.9 6.2 6.4 79 1.6 WSW 15 20 8 11 1009.0 1009.0 0.2
26/07:30pm 9.8 6.2 6.7 81 1.5 WSW 15 17 8 9 1008.8 1008.8 0.2
26/07:00pm 10.6 6.7 6.9 78 1.8 WSW 17 20 9 11 1008.6 1008.6 0.2
26/06:30pm 11.0 7.5 7.3 78 1.8 WSW 15 17 8 9 1008.3 1008.3 0.2
26/06:00pm 11.5 8.0 7.4 76 2.0 WSW 15 19 8 10 1007.9 1007.9 0.2
26/05:30pm 12.7 8.3 6.5 66 3.0 SW 19 24 10 13 1007.2 1007.2 0.2
26/05:00pm 13.6 9.8 7.4 66 3.1 SW 17 24 9 13 1006.9 1006.9 0.2
26/04:30pm 14.0 8.8 7.1 63 3.4 SW 24 35 13 19 1006.5 1006.5 0.2
26/04:00pm 13.4 6.8 7.8 69 2.8 WSW 32 50 17 27 1006.3 1006.3 0.2
26/03:30pm 15.1 7.8 7.2 59 3.9 WSW 35 43 19 23 1006.0 1006.0 0.2
26/03:00pm 15.1 8.8 7.6 61 3.7 WSW 30 39 16 21 1005.8 1005.8 0.2
26/02:30pm 14.9 8.0 7.2 60 3.8 SW 33 44 18 24 1005.7 1005.7 0.2
26/02:00pm 14.7 8.3 7.0 60 3.8 SW 30 39 16 21 1005.4 1005.4 0.2
26/01:30pm 14.2 7.5 7.5 64 3.3 SW 32 43 17 23 1005.4 1005.4 0.2
26/01:00pm 15.0 8.5 8.0 63 3.5 WSW 32 48 17 26 1005.6 1005.6 0.2
26/12:30pm 14.4 8.1 9.0 70 2.8 WSW 32 39 17 21 1005.5 1005.5 0.2
26/12:00pm 14.5 8.2 9.1 70 2.8 SW 32 41 17 22 1005.6 1005.6 0.2
26/11:30am 14.1 9.3 10.3 78 2.0 WSW 26 32 14 17 1005.9 1005.9 0.2
26/11:00am 14.3 9.2 10.5 78 2.0 WSW 28 37 15 20 1006.1 1006.1 0.2
26/10:56am 14.5 9.9 11.1 80 1.8 WSW 26 35 14 19 1006.2 1006.2 0.2
26/10:30am 14.0 8.7 11.2 83 1.5 WSW 30 37 16 20 1006.0 1006.0 0.2
26/10:13am 13.4 8.4 10.9 85 1.3 WSW 28 35 15 19 1005.9 1005.9 0.2
26/10:00am 13.4 8.1 11.3 87 1.1 WSW 30 37 16 20 1005.9 1005.9 0.2
26/09:30am 12.9 8.1 11.8 93 0.6 W 28 37 15 20 1005.9 1005.9 0.2
26/09:26am 12.7 7.5 11.6 93 0.6 W 30 37 16 20 1005.9 1005.9 0.2
26/09:00am 12.3 7.8 11.4 94 0.5 WNW 26 35 14 19 1005.8 1005.8 10.4
26/08:57am 12.3 7.8 11.4 94 0.5 WNW 26 35 14 19 1005.8 1005.8 10.4
26/08:53am 12.2 7.7 11.3 94 0.5 WNW 26 35 14 19 1005.8 1005.8 10.4
26/08:30am 11.9 7.7 11.0 94 0.5 WNW 24 30 13 16 1005.5 1005.5 10.4
26/08:14am 11.7 7.4 10.8 94 0.5 WNW 24 33 13 18 1005.3 1005.3 10.4
26/08:00am 11.6 7.7 10.7 94 0.5 WNW 22 32 12 17 1005.1 1005.1 10.4
26/07:30am 11.4 7.4 10.5 94 0.5 NW 22 30 12 16 1005.0 1005.0 10.4
26/07:00am 11.3 7.6 10.2 93 0.6 WNW 20 24 11 13 1004.8 1004.8 10.2
26/06:30am 11.2 7.1 10.1 93 0.6 WNW 22 28 12 15 1004.9 1004.9 10.2
26/06:00am 11.1 7.0 10.0 93 0.6 NNW 22 30 12 16 1004.8 1004.8 10.0
26/05:30am 11.1 7.5 10.0 93 0.6 NW 19 24 10 13 1004.4 1004.4 9.8
26/05:00am 11.1 6.6 10.0 93 0.6 NW 24 30 13 16 1005.4 1005.4 9.4
26/04:30am 11.0 7.2 9.9 93 0.6 NW 20 24 11 13 1005.1 1005.1 9.4
26/04:27am 11.0 7.2 9.9 93 0.6 NW 20 28 11 15 1005.2 1005.2 9.2
26/04:00am 10.9 6.7 9.8 93 0.6 NW 22 30 12 16 1005.5 1005.5 8.0
26/03:30am 10.8 6.2 9.7 93 0.6 NW 24 28 13 15 1005.7 1005.7 7.4
26/03:00am 10.8 7.0 9.7 93 0.6 NNW 20 28 11 15 1006.0 1006.0 6.4
26/02:30am 10.7 6.5 9.6 93 0.6 NNW 22 30 12 16 1006.3 1006.3 5.4
26/02:15am 10.7 6.5 9.6 93 0.6 NNW 22 28 12 15 1006.6 1006.6 4.8
26/02:05am 10.6 6.3 9.5 93 0.6 NNW 22 30 12 16 1006.6 1006.6 4.4
26/02:00am 10.6 6.7 9.5 93 0.6 NNW 20 30 11 16 1006.6 1006.6 4.2
26/01:30am 10.3 6.0 9.2 93 0.5 N 22 26 12 14 1006.8 1006.8 3.6
26/01:25am 10.3 6.0 9.2 93 0.5 N 22 26 12 14 1006.8 1006.8 3.6
26/01:00am 10.2 5.4 9.0 92 0.6 N 24 30 13 16 1007.1 1007.1 3.2
26/12:33am 10.2 5.4 8.8 91 0.7 N 24 32 13 17 1007.6 1007.6 2.6
26/12:30am 10.2 5.4 8.8 91 0.7 N 24 32 13 17 1007.5 1007.5 2.6
26/12:08am 10.3 4.7 8.7 90 0.8 N 28 37 15 20 1008.0 1008.0 2.4
26/12:00am 10.3 4.7 8.7 90 0.8 N 28 35 15 19 1008.1 1008.1 2.4
 
Date/Time
EST
Temp
°C
App
Temp
°C
Dew
Point
Rel
Hum
%
Delta-T
°C
Wind Press
QNH
hPa
Press
MSL
hPa
Rain
since 9 am
mm
Dir
 
Spd
km/h
Gust
km/h
Spd
kts
Gust
kts
25/11:54pm 10.2 4.5 8.5 89 0.8 N 28 35 15 19 1008.1 1008.1 2.4

Other Formats:

Comma delimited format used in spreadsheet applications
http://www.bom.gov.au/fwo/IDV60801/IDV60801.94843.axf

JavaScript Object Notation format (JSON) in row-major order
http://www.bom.gov.au/fwo/IDV60801/IDV60801.94843.json